sensor_id;sensor_type;location;lat;lon;timestamp;P1;durP1;ratioP1;P2;durP2;ratioP2
3337;SDS011;1682;49.286;10.788;2024-03-08T00:00:59;13.90;;;11.13;;
3337;SDS011;1682;49.286;10.788;2024-03-08T00:03:46;19.33;;;11.40;;
3337;SDS011;1682;49.286;10.788;2024-03-08T00:06:34;24.47;;;12.57;;
3337;SDS011;1682;49.286;10.788;2024-03-08T00:09:21;21.37;;;11.40;;
3337;SDS011;1682;49.286;10.788;2024-03-08T00:12:09;19.37;;;10.60;;
3337;SDS011;1682;49.286;10.788;2024-03-08T00:14:57;17.80;;;11.57;;
3337;SDS011;1682;49.286;10.788;2024-03-08T00:17:45;20.77;;;10.93;;
3337;SDS011;1682;49.286;10.788;2024-03-08T00:20:33;21.20;;;12.30;;
3337;SDS011;1682;49.286;10.788;2024-03-08T00:23:21;21.60;;;12.83;;
3337;SDS011;1682;49.286;10.788;2024-03-08T00:26:08;18.07;;;10.77;;
3337;SDS011;1682;49.286;10.788;2024-03-08T00:28:56;21.00;;;11.63;;
3337;SDS011;1682;49.286;10.788;2024-03-08T00:31:43;16.40;;;10.97;;
3337;SDS011;1682;49.286;10.788;2024-03-08T00:34:32;14.17;;;11.53;;
3337;SDS011;1682;49.286;10.788;2024-03-08T00:37:23;19.40;;;11.60;;
3337;SDS011;1682;49.286;10.788;2024-03-08T00:40:11;20.93;;;13.53;;
3337;SDS011;1682;49.286;10.788;2024-03-08T00:42:58;25.97;;;11.70;;
3337;SDS011;1682;49.286;10.788;2024-03-08T00:45:49;26.80;;;13.00;;
3337;SDS011;1682;49.286;10.788;2024-03-08T00:48:36;21.10;;;11.50;;
3337;SDS011;1682;49.286;10.788;2024-03-08T00:51:25;25.90;;;13.00;;
3337;SDS011;1682;49.286;10.788;2024-03-08T00:54:12;26.03;;;14.73;;
3337;SDS011;1682;49.286;10.788;2024-03-08T00:57:00;10.43;;;8.27;;
3337;SDS011;1682;49.286;10.788;2024-03-08T00:59:48;10.60;;;8.60;;
3337;SDS011;1682;49.286;10.788;2024-03-08T01:02:36;15.87;;;7.37;;
3337;SDS011;1682;49.286;10.788;2024-03-08T01:05:23;30.13;;;13.57;;
3337;SDS011;1682;49.286;10.788;2024-03-08T01:08:12;22.90;;;12.63;;
3337;SDS011;1682;49.286;10.788;2024-03-08T01:11:00;12.67;;;8.40;;
3337;SDS011;1682;49.286;10.788;2024-03-08T01:13:48;23.50;;;13.90;;
3337;SDS011;1682;49.286;10.788;2024-03-08T01:16:35;27.03;;;13.10;;
3337;SDS011;1682;49.286;10.788;2024-03-08T01:19:22;12.93;;;10.10;;
3337;SDS011;1682;49.286;10.788;2024-03-08T01:22:10;23.67;;;14.03;;
3337;SDS011;1682;49.286;10.788;2024-03-08T01:24:59;22.17;;;11.80;;
3337;SDS011;1682;49.286;10.788;2024-03-08T01:27:46;12.23;;;7.30;;
3337;SDS011;1682;49.286;10.788;2024-03-08T01:30:34;25.10;;;13.37;;
3337;SDS011;1682;49.286;10.788;2024-03-08T01:33:22;22.47;;;14.17;;
3337;SDS011;1682;49.286;10.788;2024-03-08T01:36:10;21.50;;;13.50;;
3337;SDS011;1682;49.286;10.788;2024-03-08T01:39:00;26.80;;;13.07;;
3337;SDS011;1682;49.286;10.788;2024-03-08T01:41:53;28.37;;;14.50;;
3337;SDS011;1682;49.286;10.788;2024-03-08T01:44:41;20.77;;;12.87;;
3337;SDS011;1682;49.286;10.788;2024-03-08T01:47:28;26.90;;;16.93;;
3337;SDS011;1682;49.286;10.788;2024-03-08T01:50:18;29.30;;;15.70;;
3337;SDS011;1682;49.286;10.788;2024-03-08T01:53:06;24.73;;;12.67;;
3337;SDS011;1682;49.286;10.788;2024-03-08T01:55:56;25.67;;;13.10;;
3337;SDS011;1682;49.286;10.788;2024-03-08T01:58:45;19.97;;;11.77;;
3337;SDS011;1682;49.286;10.788;2024-03-08T02:01:33;23.00;;;13.67;;
3337;SDS011;1682;49.286;10.788;2024-03-08T02:04:20;17.20;;;8.23;;
3337;SDS011;1682;49.286;10.788;2024-03-08T02:07:08;27.10;;;14.67;;
3337;SDS011;1682;49.286;10.788;2024-03-08T02:09:56;10.73;;;7.23;;
3337;SDS011;1682;49.286;10.788;2024-03-08T02:12:43;21.50;;;13.90;;
3337;SDS011;1682;49.286;10.788;2024-03-08T02:18:34;18.00;;;11.10;;
3337;SDS011;1682;49.286;10.788;2024-03-08T02:21:23;26.10;;;12.80;;
3337;SDS011;1682;49.286;10.788;2024-03-08T02:24:11;19.50;;;12.70;;
3337;SDS011;1682;49.286;10.788;2024-03-08T02:26:58;23.37;;;10.47;;
3337;SDS011;1682;49.286;10.788;2024-03-08T02:29:46;9.33;;;8.20;;
3337;SDS011;1682;49.286;10.788;2024-03-08T02:32:34;17.77;;;14.60;;
3337;SDS011;1682;49.286;10.788;2024-03-08T02:35:21;16.30;;;8.73;;
3337;SDS011;1682;49.286;10.788;2024-03-08T02:38:10;15.20;;;11.27;;
3337;SDS011;1682;49.286;10.788;2024-03-08T02:40:57;22.13;;;11.73;;
3337;SDS011;1682;49.286;10.788;2024-03-08T02:43:45;28.10;;;12.90;;
3337;SDS011;1682;49.286;10.788;2024-03-08T02:46:33;18.33;;;10.93;;
3337;SDS011;1682;49.286;10.788;2024-03-08T02:49:21;15.40;;;7.93;;
3337;SDS011;1682;49.286;10.788;2024-03-08T02:52:08;5.20;;;4.70;;
3337;SDS011;1682;49.286;10.788;2024-03-08T02:54:57;19.77;;;6.43;;
3337;SDS011;1682;49.286;10.788;2024-03-08T02:57:45;20.47;;;11.50;;
3337;SDS011;1682;49.286;10.788;2024-03-08T03:00:33;10.77;;;7.67;;
3337;SDS011;1682;49.286;10.788;2024-03-08T03:03:20;8.17;;;5.90;;
3337;SDS011;1682;49.286;10.788;2024-03-08T03:06:08;19.77;;;11.63;;
3337;SDS011;1682;49.286;10.788;2024-03-08T03:08:55;7.73;;;7.17;;
3337;SDS011;1682;49.286;10.788;2024-03-08T03:11:45;7.93;;;4.80;;
3337;SDS011;1682;49.286;10.788;2024-03-08T03:14:32;11.00;;;5.83;;
3337;SDS011;1682;49.286;10.788;2024-03-08T03:17:23;26.40;;;13.40;;
3337;SDS011;1682;49.286;10.788;2024-03-08T03:20:11;8.47;;;3.37;;
3337;SDS011;1682;49.286;10.788;2024-03-08T03:22:59;7.87;;;5.80;;
3337;SDS011;1682;49.286;10.788;2024-03-08T03:25:48;7.43;;;6.80;;
3337;SDS011;1682;49.286;10.788;2024-03-08T03:28:39;20.03;;;13.10;;
3337;SDS011;1682;49.286;10.788;2024-03-08T03:31:26;17.73;;;12.10;;
3337;SDS011;1682;49.286;10.788;2024-03-08T03:34:14;13.17;;;8.70;;
3337;SDS011;1682;49.286;10.788;2024-03-08T03:37:02;14.60;;;12.00;;
3337;SDS011;1682;49.286;10.788;2024-03-08T03:39:49;15.93;;;10.70;;
3337;SDS011;1682;49.286;10.788;2024-03-08T03:42:38;18.83;;;9.90;;
3337;SDS011;1682;49.286;10.788;2024-03-08T03:45:27;20.03;;;12.10;;
3337;SDS011;1682;49.286;10.788;2024-03-08T03:48:15;19.13;;;10.53;;
3337;SDS011;1682;49.286;10.788;2024-03-08T03:51:02;7.67;;;5.40;;
3337;SDS011;1682;49.286;10.788;2024-03-08T03:53:50;5.97;;;4.93;;
3337;SDS011;1682;49.286;10.788;2024-03-08T03:56:38;7.70;;;6.03;;
3337;SDS011;1682;49.286;10.788;2024-03-08T03:59:26;23.37;;;11.80;;
3337;SDS011;1682;49.286;10.788;2024-03-08T04:02:15;11.03;;;6.10;;
3337;SDS011;1682;49.286;10.788;2024-03-08T04:05:03;8.70;;;8.10;;
3337;SDS011;1682;49.286;10.788;2024-03-08T04:07:50;17.20;;;12.67;;
3337;SDS011;1682;49.286;10.788;2024-03-08T04:10:38;7.27;;;5.67;;
3337;SDS011;1682;49.286;10.788;2024-03-08T04:13:27;10.53;;;5.60;;
3337;SDS011;1682;49.286;10.788;2024-03-08T04:16:14;11.63;;;7.67;;
3337;SDS011;1682;49.286;10.788;2024-03-08T04:19:04;20.87;;;12.87;;
3337;SDS011;1682;49.286;10.788;2024-03-08T04:21:52;24.77;;;13.50;;
3337;SDS011;1682;49.286;10.788;2024-03-08T04:24:39;23.13;;;13.53;;
3337;SDS011;1682;49.286;10.788;2024-03-08T04:27:27;19.43;;;13.60;;
3337;SDS011;1682;49.286;10.788;2024-03-08T04:30:14;23.70;;;12.47;;
3337;SDS011;1682;49.286;10.788;2024-03-08T04:33:02;22.13;;;13.47;;
3337;SDS011;1682;49.286;10.788;2024-03-08T04:35:51;23.73;;;11.80;;
3337;SDS011;1682;49.286;10.788;2024-03-08T04:38:38;28.80;;;13.33;;
3337;SDS011;1682;49.286;10.788;2024-03-08T04:41:27;22.10;;;13.47;;
3337;SDS011;1682;49.286;10.788;2024-03-08T04:44:15;18.00;;;12.40;;
3337;SDS011;1682;49.286;10.788;2024-03-08T04:47:03;15.17;;;6.67;;
3337;SDS011;1682;49.286;10.788;2024-03-08T04:49:51;22.67;;;13.63;;
3337;SDS011;1682;49.286;10.788;2024-03-08T04:52:41;12.40;;;9.50;;
3337;SDS011;1682;49.286;10.788;2024-03-08T04:55:28;23.20;;;13.27;;
3337;SDS011;1682;49.286;10.788;2024-03-08T04:58:16;10.50;;;7.23;;
3337;SDS011;1682;49.286;10.788;2024-03-08T05:01:04;30.43;;;14.70;;
3337;SDS011;1682;49.286;10.788;2024-03-08T05:03:51;24.53;;;13.07;;
3337;SDS011;1682;49.286;10.788;2024-03-08T05:06:40;21.93;;;12.23;;
3337;SDS011;1682;49.286;10.788;2024-03-08T05:09:29;17.60;;;11.20;;
3337;SDS011;1682;49.286;10.788;2024-03-08T05:12:18;27.63;;;13.47;;
3337;SDS011;1682;49.286;10.788;2024-03-08T05:15:06;22.50;;;13.43;;
3337;SDS011;1682;49.286;10.788;2024-03-08T05:17:53;32.23;;;13.37;;
3337;SDS011;1682;49.286;10.788;2024-03-08T05:20:43;9.80;;;7.20;;
3337;SDS011;1682;49.286;10.788;2024-03-08T05:23:31;22.13;;;12.00;;
3337;SDS011;1682;49.286;10.788;2024-03-08T05:26:21;21.10;;;12.83;;
3337;SDS011;1682;49.286;10.788;2024-03-08T05:29:08;12.90;;;7.97;;
3337;SDS011;1682;49.286;10.788;2024-03-08T05:31:56;24.10;;;13.30;;
3337;SDS011;1682;49.286;10.788;2024-03-08T05:34:44;6.97;;;5.83;;
3337;SDS011;1682;49.286;10.788;2024-03-08T05:37:32;24.80;;;14.10;;
3337;SDS011;1682;49.286;10.788;2024-03-08T05:40:19;22.90;;;12.60;;
3337;SDS011;1682;49.286;10.788;2024-03-08T05:43:08;17.77;;;11.60;;
3337;SDS011;1682;49.286;10.788;2024-03-08T05:45:57;35.83;;;16.43;;
3337;SDS011;1682;49.286;10.788;2024-03-08T05:48:44;22.97;;;13.60;;
3337;SDS011;1682;49.286;10.788;2024-03-08T05:51:32;17.70;;;11.80;;
3337;SDS011;1682;49.286;10.788;2024-03-08T05:54:20;26.27;;;13.30;;
3337;SDS011;1682;49.286;10.788;2024-03-08T05:57:09;15.23;;;10.33;;
3337;SDS011;1682;49.286;10.788;2024-03-08T05:59:58;17.60;;;10.93;;
3337;SDS011;1682;49.286;10.788;2024-03-08T06:02:46;23.00;;;13.80;;
3337;SDS011;1682;49.286;10.788;2024-03-08T06:05:33;30.37;;;15.20;;
3337;SDS011;1682;49.286;10.788;2024-03-08T06:08:21;13.87;;;5.93;;
3337;SDS011;1682;49.286;10.788;2024-03-08T06:11:08;26.40;;;13.43;;
3337;SDS011;1682;49.286;10.788;2024-03-08T06:13:56;28.77;;;15.00;;
3337;SDS011;1682;49.286;10.788;2024-03-08T06:16:46;22.03;;;14.43;;
3337;SDS011;1682;49.286;10.788;2024-03-08T06:19:35;12.43;;;8.10;;
3337;SDS011;1682;49.286;10.788;2024-03-08T06:22:22;20.57;;;13.30;;
3337;SDS011;1682;49.286;10.788;2024-03-08T06:25:10;6.90;;;6.30;;
3337;SDS011;1682;49.286;10.788;2024-03-08T06:27:59;10.73;;;9.73;;
3337;SDS011;1682;49.286;10.788;2024-03-08T06:30:46;16.70;;;9.03;;
3337;SDS011;1682;49.286;10.788;2024-03-08T06:33:37;12.93;;;8.40;;
3337;SDS011;1682;49.286;10.788;2024-03-08T06:36:25;9.70;;;7.20;;
3337;SDS011;1682;49.286;10.788;2024-03-08T06:39:13;22.03;;;13.07;;
3337;SDS011;1682;49.286;10.788;2024-03-08T06:42:01;12.70;;;8.80;;
3337;SDS011;1682;49.286;10.788;2024-03-08T06:44:50;18.13;;;12.93;;
3337;SDS011;1682;49.286;10.788;2024-03-08T06:47:40;20.00;;;14.47;;
3337;SDS011;1682;49.286;10.788;2024-03-08T06:50:30;10.23;;;6.53;;
3337;SDS011;1682;49.286;10.788;2024-03-08T06:53:17;10.83;;;5.57;;
3337;SDS011;1682;49.286;10.788;2024-03-08T06:56:05;11.37;;;6.93;;
3337;SDS011;1682;49.286;10.788;2024-03-08T06:58:53;12.53;;;8.30;;
3337;SDS011;1682;49.286;10.788;2024-03-08T07:01:40;9.20;;;8.23;;
3337;SDS011;1682;49.286;10.788;2024-03-08T07:04:28;11.90;;;8.63;;
3337;SDS011;1682;49.286;10.788;2024-03-08T07:07:18;17.40;;;10.73;;
3337;SDS011;1682;49.286;10.788;2024-03-08T07:10:07;19.10;;;10.40;;
3337;SDS011;1682;49.286;10.788;2024-03-08T07:12:56;14.27;;;11.20;;
3337;SDS011;1682;49.286;10.788;2024-03-08T07:15:43;23.57;;;12.90;;
3337;SDS011;1682;49.286;10.788;2024-03-08T07:18:32;16.60;;;9.53;;
3337;SDS011;1682;49.286;10.788;2024-03-08T07:21:21;15.07;;;8.87;;
3337;SDS011;1682;49.286;10.788;2024-03-08T07:24:11;13.10;;;11.00;;
3337;SDS011;1682;49.286;10.788;2024-03-08T07:27:18;9.30;;;7.53;;
3337;SDS011;1682;49.286;10.788;2024-03-08T07:30:06;12.17;;;6.13;;
3337;SDS011;1682;49.286;10.788;2024-03-08T07:32:55;19.60;;;11.00;;
3337;SDS011;1682;49.286;10.788;2024-03-08T07:35:43;18.43;;;12.20;;
3337;SDS011;1682;49.286;10.788;2024-03-08T07:38:30;20.10;;;12.63;;
3337;SDS011;1682;49.286;10.788;2024-03-08T07:41:19;23.97;;;13.07;;
3337;SDS011;1682;49.286;10.788;2024-03-08T07:44:08;16.43;;;9.50;;
3337;SDS011;1682;49.286;10.788;2024-03-08T07:46:55;13.90;;;8.60;;
3337;SDS011;1682;49.286;10.788;2024-03-08T07:49:44;20.07;;;9.50;;
3337;SDS011;1682;49.286;10.788;2024-03-08T07:52:31;25.27;;;12.53;;
3337;SDS011;1682;49.286;10.788;2024-03-08T07:55:19;15.37;;;13.33;;
3337;SDS011;1682;49.286;10.788;2024-03-08T07:58:11;13.87;;;9.27;;
3337;SDS011;1682;49.286;10.788;2024-03-08T08:00:59;19.00;;;11.70;;
3337;SDS011;1682;49.286;10.788;2024-03-08T08:03:46;20.60;;;11.90;;
3337;SDS011;1682;49.286;10.788;2024-03-08T08:06:34;15.30;;;10.63;;
3337;SDS011;1682;49.286;10.788;2024-03-08T08:09:23;20.73;;;10.57;;
3337;SDS011;1682;49.286;10.788;2024-03-08T08:12:19;11.83;;;9.37;;
3337;SDS011;1682;49.286;10.788;2024-03-08T08:15:09;15.73;;;10.30;;
3337;SDS011;1682;49.286;10.788;2024-03-08T08:17:56;18.97;;;11.37;;
3337;SDS011;1682;49.286;10.788;2024-03-08T08:20:44;20.23;;;8.93;;
3337;SDS011;1682;49.286;10.788;2024-03-08T08:23:32;14.70;;;10.03;;
3337;SDS011;1682;49.286;10.788;2024-03-08T08:26:19;13.13;;;7.67;;
3337;SDS011;1682;49.286;10.788;2024-03-08T08:29:07;8.20;;;6.87;;
3337;SDS011;1682;49.286;10.788;2024-03-08T08:31:56;13.47;;;10.27;;
3337;SDS011;1682;49.286;10.788;2024-03-08T08:34:44;10.70;;;8.63;;
3337;SDS011;1682;49.286;10.788;2024-03-08T08:37:32;11.30;;;8.07;;
3337;SDS011;1682;49.286;10.788;2024-03-08T08:40:21;15.27;;;8.37;;
3337;SDS011;1682;49.286;10.788;2024-03-08T08:43:08;18.17;;;10.67;;
3337;SDS011;1682;49.286;10.788;2024-03-08T08:45:56;15.90;;;9.17;;
3337;SDS011;1682;49.286;10.788;2024-03-08T08:48:45;17.63;;;9.80;;
3337;SDS011;1682;49.286;10.788;2024-03-08T08:51:32;17.70;;;9.00;;
3337;SDS011;1682;49.286;10.788;2024-03-08T08:54:20;11.83;;;10.27;;
3337;SDS011;1682;49.286;10.788;2024-03-08T08:57:10;13.90;;;8.20;;
3337;SDS011;1682;49.286;10.788;2024-03-08T08:59:58;11.80;;;8.47;;
3337;SDS011;1682;49.286;10.788;2024-03-08T09:02:46;11.97;;;6.73;;
3337;SDS011;1682;49.286;10.788;2024-03-08T09:05:37;15.80;;;9.50;;
3337;SDS011;1682;49.286;10.788;2024-03-08T09:08:28;9.07;;;7.60;;
3337;SDS011;1682;49.286;10.788;2024-03-08T09:11:15;12.60;;;8.07;;
3337;SDS011;1682;49.286;10.788;2024-03-08T09:14:03;13.33;;;8.70;;
3337;SDS011;1682;49.286;10.788;2024-03-08T09:16:50;11.90;;;8.00;;
3337;SDS011;1682;49.286;10.788;2024-03-08T09:19:38;13.67;;;8.40;;
3337;SDS011;1682;49.286;10.788;2024-03-08T09:22:26;16.93;;;9.10;;
3337;SDS011;1682;49.286;10.788;2024-03-08T09:25:14;15.00;;;9.77;;
3337;SDS011;1682;49.286;10.788;2024-03-08T09:28:01;15.57;;;9.20;;
3337;SDS011;1682;49.286;10.788;2024-03-08T09:30:50;10.70;;;8.67;;
3337;SDS011;1682;49.286;10.788;2024-03-08T09:33:38;20.63;;;8.27;;
3337;SDS011;1682;49.286;10.788;2024-03-08T09:36:25;12.90;;;8.93;;
3337;SDS011;1682;49.286;10.788;2024-03-08T09:39:14;11.77;;;8.70;;
3337;SDS011;1682;49.286;10.788;2024-03-08T09:42:04;17.07;;;8.30;;
3337;SDS011;1682;49.286;10.788;2024-03-08T09:44:52;15.43;;;9.90;;
3337;SDS011;1682;49.286;10.788;2024-03-08T09:47:39;19.33;;;10.87;;
3337;SDS011;1682;49.286;10.788;2024-03-08T09:50:27;19.63;;;10.63;;
3337;SDS011;1682;49.286;10.788;2024-03-08T09:53:15;10.00;;;7.43;;
3337;SDS011;1682;49.286;10.788;2024-03-08T09:56:04;15.23;;;9.37;;
3337;SDS011;1682;49.286;10.788;2024-03-08T09:58:52;10.10;;;7.77;;
3337;SDS011;1682;49.286;10.788;2024-03-08T10:02:00;12.60;;;8.00;;
3337;SDS011;1682;49.286;10.788;2024-03-08T10:04:48;18.37;;;8.80;;
3337;SDS011;1682;49.286;10.788;2024-03-08T10:07:35;15.53;;;7.23;;
3337;SDS011;1682;49.286;10.788;2024-03-08T10:10:23;15.63;;;7.63;;
3337;SDS011;1682;49.286;10.788;2024-03-08T10:13:13;11.80;;;7.17;;
3337;SDS011;1682;49.286;10.788;2024-03-08T10:16:02;13.33;;;7.67;;
3337;SDS011;1682;49.286;10.788;2024-03-08T10:18:50;11.23;;;7.63;;
3337;SDS011;1682;49.286;10.788;2024-03-08T10:21:47;12.47;;;8.60;;
3337;SDS011;1682;49.286;10.788;2024-03-08T10:24:34;13.40;;;8.73;;
3337;SDS011;1682;49.286;10.788;2024-03-08T10:27:22;14.43;;;8.80;;
3337;SDS011;1682;49.286;10.788;2024-03-08T10:30:14;13.30;;;7.33;;
3337;SDS011;1682;49.286;10.788;2024-03-08T10:33:05;12.60;;;7.60;;
3337;SDS011;1682;49.286;10.788;2024-03-08T10:35:53;17.47;;;7.47;;
3337;SDS011;1682;49.286;10.788;2024-03-08T10:38:42;18.00;;;8.10;;
3337;SDS011;1682;49.286;10.788;2024-03-08T10:41:32;9.97;;;6.97;;
3337;SDS011;1682;49.286;10.788;2024-03-08T10:44:23;10.80;;;7.90;;
3337;SDS011;1682;49.286;10.788;2024-03-08T10:47:17;8.57;;;7.37;;
3337;SDS011;1682;49.286;10.788;2024-03-08T10:50:08;14.43;;;7.13;;
3337;SDS011;1682;49.286;10.788;2024-03-08T10:52:58;9.20;;;5.87;;
3337;SDS011;1682;49.286;10.788;2024-03-08T10:55:46;13.13;;;5.90;;
3337;SDS011;1682;49.286;10.788;2024-03-08T10:58:35;14.27;;;7.30;;
3337;SDS011;1682;49.286;10.788;2024-03-08T11:01:23;8.53;;;6.73;;
3337;SDS011;1682;49.286;10.788;2024-03-08T11:04:13;9.50;;;6.90;;
3337;SDS011;1682;49.286;10.788;2024-03-08T11:07:01;16.50;;;6.87;;
3337;SDS011;1682;49.286;10.788;2024-03-08T11:09:51;7.40;;;6.03;;
3337;SDS011;1682;49.286;10.788;2024-03-08T11:12:39;11.87;;;6.33;;
3337;SDS011;1682;49.286;10.788;2024-03-08T11:15:27;10.45;;;6.93;;
3337;SDS011;1682;49.286;10.788;2024-03-08T11:18:17;12.77;;;7.07;;
3337;SDS011;1682;49.286;10.788;2024-03-08T11:21:09;12.10;;;6.90;;
3337;SDS011;1682;49.286;10.788;2024-03-08T11:23:58;11.00;;;6.80;;
3337;SDS011;1682;49.286;10.788;2024-03-08T11:26:46;13.63;;;7.23;;
3337;SDS011;1682;49.286;10.788;2024-03-08T11:29:36;10.27;;;7.10;;
3337;SDS011;1682;49.286;10.788;2024-03-08T11:32:27;8.93;;;6.33;;
3337;SDS011;1682;49.286;10.788;2024-03-08T11:35:18;14.90;;;8.47;;
3337;SDS011;1682;49.286;10.788;2024-03-08T11:38:08;17.03;;;8.23;;
3337;SDS011;1682;49.286;10.788;2024-03-08T11:40:56;12.68;;;7.90;;
3337;SDS011;1682;49.286;10.788;2024-03-08T11:43:44;12.30;;;7.80;;
3337;SDS011;1682;49.286;10.788;2024-03-08T11:46:32;9.43;;;6.67;;
3337;SDS011;1682;49.286;10.788;2024-03-08T11:49:20;8.90;;;6.13;;
3337;SDS011;1682;49.286;10.788;2024-03-08T11:52:10;8.57;;;7.00;;
3337;SDS011;1682;49.286;10.788;2024-03-08T11:55:00;11.80;;;7.70;;
3337;SDS011;1682;49.286;10.788;2024-03-08T11:57:48;10.50;;;7.37;;
3337;SDS011;1682;49.286;10.788;2024-03-08T12:00:37;8.40;;;5.70;;
3337;SDS011;1682;49.286;10.788;2024-03-08T12:03:25;11.93;;;6.67;;
3337;SDS011;1682;49.286;10.788;2024-03-08T12:06:14;7.67;;;5.70;;
3337;SDS011;1682;49.286;10.788;2024-03-08T12:09:02;9.80;;;7.37;;
3337;SDS011;1682;49.286;10.788;2024-03-08T12:11:51;10.83;;;6.50;;
3337;SDS011;1682;49.286;10.788;2024-03-08T12:14:39;8.40;;;6.10;;
3337;SDS011;1682;49.286;10.788;2024-03-08T12:17:30;8.70;;;6.00;;
3337;SDS011;1682;49.286;10.788;2024-03-08T12:20:19;10.77;;;6.97;;
3337;SDS011;1682;49.286;10.788;2024-03-08T12:23:08;10.43;;;6.70;;
3337;SDS011;1682;49.286;10.788;2024-03-08T12:26:09;8.90;;;6.43;;
3337;SDS011;1682;49.286;10.788;2024-03-08T12:34:53;9.40;;;6.77;;
3337;SDS011;1682;49.286;10.788;2024-03-08T12:37:40;9.40;;;7.53;;
3337;SDS011;1682;49.286;10.788;2024-03-08T12:40:28;8.53;;;7.10;;
3337;SDS011;1682;49.286;10.788;2024-03-08T12:43:17;9.20;;;6.80;;
3337;SDS011;1682;49.286;10.788;2024-03-08T12:46:04;6.87;;;6.20;;
3337;SDS011;1682;49.286;10.788;2024-03-08T12:48:54;6.90;;;6.20;;
3337;SDS011;1682;49.286;10.788;2024-03-08T12:51:43;8.33;;;6.43;;
3337;SDS011;1682;49.286;10.788;2024-03-08T12:54:30;6.90;;;5.70;;
3337;SDS011;1682;49.286;10.788;2024-03-08T12:57:18;7.17;;;5.47;;
3337;SDS011;1682;49.286;10.788;2024-03-08T13:00:06;7.40;;;6.27;;
3337;SDS011;1682;49.286;10.788;2024-03-08T13:02:58;9.03;;;6.53;;
3337;SDS011;1682;49.286;10.788;2024-03-08T13:08:38;7.50;;;5.00;;
3337;SDS011;1682;49.286;10.788;2024-03-08T13:11:26;6.37;;;5.40;;
3337;SDS011;1682;49.286;10.788;2024-03-08T13:14:14;6.77;;;5.23;;
3337;SDS011;1682;49.286;10.788;2024-03-08T13:17:02;7.10;;;5.70;;
3337;SDS011;1682;49.286;10.788;2024-03-08T13:19:49;5.30;;;4.80;;
3337;SDS011;1682;49.286;10.788;2024-03-08T13:28:13;6.73;;;5.60;;
3337;SDS011;1682;49.286;10.788;2024-03-08T13:31:03;5.30;;;4.57;;
3337;SDS011;1682;49.286;10.788;2024-03-08T13:33:52;6.00;;;5.40;;
3337;SDS011;1682;49.286;10.788;2024-03-08T13:36:44;6.27;;;5.40;;
3337;SDS011;1682;49.286;10.788;2024-03-08T13:39:32;6.00;;;4.80;;
3337;SDS011;1682;49.286;10.788;2024-03-08T13:42:25;6.10;;;5.07;;
3337;SDS011;1682;49.286;10.788;2024-03-08T13:45:14;6.37;;;5.77;;
3337;SDS011;1682;49.286;10.788;2024-03-08T13:48:08;5.70;;;5.10;;
3337;SDS011;1682;49.286;10.788;2024-03-08T13:50:58;5.93;;;5.00;;
3337;SDS011;1682;49.286;10.788;2024-03-08T13:53:45;5.83;;;4.97;;
3337;SDS011;1682;49.286;10.788;2024-03-08T13:56:33;9.90;;;6.33;;
3337;SDS011;1682;49.286;10.788;2024-03-08T13:59:22;6.70;;;4.53;;
3337;SDS011;1682;49.286;10.788;2024-03-08T14:02:11;5.97;;;5.30;;
3337;SDS011;1682;49.286;10.788;2024-03-08T14:04:59;6.17;;;5.57;;
3337;SDS011;1682;49.286;10.788;2024-03-08T14:07:47;4.83;;;4.43;;
3337;SDS011;1682;49.286;10.788;2024-03-08T14:10:35;8.17;;;4.67;;
3337;SDS011;1682;49.286;10.788;2024-03-08T14:13:23;6.53;;;4.70;;
3337;SDS011;1682;49.286;10.788;2024-03-08T14:16:10;6.23;;;5.17;;
3337;SDS011;1682;49.286;10.788;2024-03-08T14:19:00;5.70;;;5.00;;
3337;SDS011;1682;49.286;10.788;2024-03-08T14:21:51;7.60;;;5.50;;
3337;SDS011;1682;49.286;10.788;2024-03-08T14:24:38;5.17;;;4.40;;
3337;SDS011;1682;49.286;10.788;2024-03-08T14:27:27;7.03;;;4.57;;
3337;SDS011;1682;49.286;10.788;2024-03-08T14:30:15;6.00;;;4.90;;
3337;SDS011;1682;49.286;10.788;2024-03-08T14:33:17;9.40;;;5.50;;
3337;SDS011;1682;49.286;10.788;2024-03-08T14:36:06;7.73;;;5.30;;
3337;SDS011;1682;49.286;10.788;2024-03-08T14:38:54;4.93;;;4.30;;
3337;SDS011;1682;49.286;10.788;2024-03-08T14:41:41;5.20;;;4.80;;
3337;SDS011;1682;49.286;10.788;2024-03-08T14:44:29;6.20;;;4.80;;
3337;SDS011;1682;49.286;10.788;2024-03-08T14:47:17;7.40;;;5.00;;
3337;SDS011;1682;49.286;10.788;2024-03-08T14:50:04;6.97;;;4.80;;
3337;SDS011;1682;49.286;10.788;2024-03-08T14:52:54;6.93;;;5.20;;
3337;SDS011;1682;49.286;10.788;2024-03-08T14:55:42;6.20;;;5.60;;
3337;SDS011;1682;49.286;10.788;2024-03-08T14:58:32;6.07;;;4.70;;
3337;SDS011;1682;49.286;10.788;2024-03-08T15:01:19;6.17;;;4.57;;
3337;SDS011;1682;49.286;10.788;2024-03-08T15:04:09;7.37;;;4.20;;
3337;SDS011;1682;49.286;10.788;2024-03-08T15:06:57;5.33;;;4.20;;
3337;SDS011;1682;49.286;10.788;2024-03-08T15:09:46;5.37;;;4.70;;
3337;SDS011;1682;49.286;10.788;2024-03-08T15:12:33;7.00;;;5.07;;
3337;SDS011;1682;49.286;10.788;2024-03-08T15:15:21;6.33;;;5.40;;
3337;SDS011;1682;49.286;10.788;2024-03-08T15:18:10;7.63;;;6.13;;
3337;SDS011;1682;49.286;10.788;2024-03-08T15:20:58;10.13;;;6.23;;
3337;SDS011;1682;49.286;10.788;2024-03-08T15:23:45;6.43;;;5.73;;
3337;SDS011;1682;49.286;10.788;2024-03-08T15:26:37;9.23;;;6.70;;
3337;SDS011;1682;49.286;10.788;2024-03-08T15:29:24;16.07;;;6.73;;
3337;SDS011;1682;49.286;10.788;2024-03-08T15:32:12;7.43;;;5.70;;
3337;SDS011;1682;49.286;10.788;2024-03-08T15:35:05;8.40;;;6.33;;
3337;SDS011;1682;49.286;10.788;2024-03-08T15:37:54;9.63;;;6.37;;
3337;SDS011;1682;49.286;10.788;2024-03-08T15:40:43;7.70;;;5.90;;
3337;SDS011;1682;49.286;10.788;2024-03-08T15:43:33;8.07;;;6.57;;
3337;SDS011;1682;49.286;10.788;2024-03-08T15:46:22;8.50;;;6.00;;
3337;SDS011;1682;49.286;10.788;2024-03-08T15:49:10;7.13;;;6.40;;
3337;SDS011;1682;49.286;10.788;2024-03-08T15:51:58;9.30;;;5.60;;
3337;SDS011;1682;49.286;10.788;2024-03-08T15:54:45;5.80;;;5.23;;
3337;SDS011;1682;49.286;10.788;2024-03-08T15:57:33;10.57;;;6.10;;
3337;SDS011;1682;49.286;10.788;2024-03-08T16:00:23;7.43;;;5.33;;
3337;SDS011;1682;49.286;10.788;2024-03-08T16:03:21;12.97;;;8.30;;
3337;SDS011;1682;49.286;10.788;2024-03-08T16:06:08;7.57;;;6.60;;
3337;SDS011;1682;49.286;10.788;2024-03-08T16:08:56;10.03;;;7.23;;
3337;SDS011;1682;49.286;10.788;2024-03-08T16:11:44;10.93;;;6.33;;
3337;SDS011;1682;49.286;10.788;2024-03-08T16:14:36;10.63;;;6.20;;
3337;SDS011;1682;49.286;10.788;2024-03-08T16:17:25;9.87;;;6.20;;
3337;SDS011;1682;49.286;10.788;2024-03-08T16:20:13;9.53;;;6.47;;
3337;SDS011;1682;49.286;10.788;2024-03-08T16:23:01;6.97;;;5.27;;
3337;SDS011;1682;49.286;10.788;2024-03-08T16:25:49;9.07;;;5.43;;
3337;SDS011;1682;49.286;10.788;2024-03-08T16:28:38;10.07;;;5.50;;
3337;SDS011;1682;49.286;10.788;2024-03-08T16:31:26;6.50;;;4.63;;
3337;SDS011;1682;49.286;10.788;2024-03-08T16:34:15;10.47;;;5.70;;
3337;SDS011;1682;49.286;10.788;2024-03-08T16:37:03;6.30;;;5.70;;
3337;SDS011;1682;49.286;10.788;2024-03-08T16:39:50;5.33;;;4.87;;
3337;SDS011;1682;49.286;10.788;2024-03-08T16:42:38;9.63;;;5.50;;
3337;SDS011;1682;49.286;10.788;2024-03-08T16:45:25;5.60;;;5.20;;
3337;SDS011;1682;49.286;10.788;2024-03-08T16:48:13;5.27;;;3.67;;
3337;SDS011;1682;49.286;10.788;2024-03-08T16:51:03;8.47;;;6.27;;
3337;SDS011;1682;49.286;10.788;2024-03-08T16:53:54;16.83;;;9.00;;
3337;SDS011;1682;49.286;10.788;2024-03-08T16:56:41;8.43;;;5.70;;
3337;SDS011;1682;49.286;10.788;2024-03-08T16:59:30;6.27;;;5.50;;
3337;SDS011;1682;49.286;10.788;2024-03-08T17:02:18;8.73;;;5.87;;
3337;SDS011;1682;49.286;10.788;2024-03-08T17:05:06;7.00;;;4.10;;
3337;SDS011;1682;49.286;10.788;2024-03-08T17:07:56;7.73;;;6.43;;
3337;SDS011;1682;49.286;10.788;2024-03-08T17:10:45;4.63;;;4.23;;
3337;SDS011;1682;49.286;10.788;2024-03-08T17:13:33;9.60;;;7.67;;